createdAt,value
2023-02-09T00:02:03.591Z,11.60
2023-02-09T00:04:27.185Z,13.17
2023-02-09T00:06:50.494Z,11.67
2023-02-09T00:09:13.908Z,15.00
2023-02-09T00:11:56.552Z,14.57
2023-02-09T00:14:22.268Z,12.80
2023-02-09T00:16:46.021Z,13.17
2023-02-09T00:19:09.387Z,13.33
2023-02-09T00:21:33.110Z,11.80
2023-02-09T00:23:56.363Z,14.87
2023-02-09T00:26:19.661Z,13.23
2023-02-09T00:28:44.908Z,11.37
2023-02-09T00:31:10.698Z,12.13
2023-02-09T00:33:37.787Z,15.73
2023-02-09T00:36:01.124Z,13.03
2023-02-09T00:38:24.365Z,14.87
2023-02-09T00:40:50.044Z,14.50
2023-02-09T00:43:13.527Z,13.57
2023-02-09T00:45:38.198Z,13.97
2023-02-09T00:48:01.866Z,12.77
2023-02-09T00:50:26.885Z,14.77
2023-02-09T00:52:50.185Z,13.47
2023-02-09T00:55:13.483Z,13.70
2023-02-09T00:57:37.108Z,13.20
2023-02-09T01:00:00.513Z,15.50
2023-02-09T01:02:25.231Z,13.43
2023-02-09T01:04:49.687Z,14.47
2023-02-09T01:07:13.017Z,13.07
2023-02-09T01:09:36.459Z,13.83
2023-02-09T01:12:02.187Z,15.83
2023-02-09T01:14:25.489Z,13.70
2023-02-09T01:16:48.983Z,14.17
2023-02-09T01:19:14.851Z,16.30
2023-02-09T01:21:38.156Z,15.37
2023-02-09T01:24:01.556Z,14.63
2023-02-09T01:26:25.054Z,15.97
2023-02-09T01:28:51.468Z,12.97
2023-02-09T01:31:26.295Z,14.50
2023-02-09T01:33:49.822Z,14.43
2023-02-09T01:36:14.507Z,12.10
2023-02-09T01:38:37.788Z,17.60
2023-02-09T01:41:01.124Z,13.67
2023-02-09T01:43:24.463Z,13.60
2023-02-09T01:45:50.162Z,14.70
2023-02-09T01:48:15.953Z,13.60
2023-02-09T01:50:45.415Z,14.27
2023-02-09T01:53:10.714Z,15.70
2023-02-09T01:55:37.469Z,15.33
2023-02-09T01:58:05.944Z,14.67
2023-02-09T02:00:29.451Z,17.23
2023-02-09T02:02:57.425Z,15.47
2023-02-09T02:05:22.621Z,14.67
2023-02-09T02:07:52.951Z,16.83
2023-02-09T02:10:17.753Z,16.40
2023-02-09T02:12:41.532Z,15.77
2023-02-09T02:15:08.936Z,16.13
2023-02-09T02:17:51.176Z,15.00
2023-02-09T02:21:11.525Z,16.73
2023-02-09T02:23:43.148Z,15.20
2023-02-09T02:26:54.758Z,15.03
2023-02-09T02:30:04.505Z,18.50
2023-02-09T02:32:57.170Z,14.90
2023-02-09T02:35:27.957Z,18.17
2023-02-09T02:38:01.439Z,18.60
2023-02-09T02:40:40.079Z,13.93
2023-02-09T02:43:12.573Z,15.83
2023-02-09T02:45:44.750Z,16.90
2023-02-09T02:48:24.226Z,14.73
2023-02-09T02:50:54.815Z,16.50
2023-02-09T02:53:20.104Z,16.87
2023-02-09T02:55:45.609Z,16.43
2023-02-09T02:58:12.820Z,14.27
2023-02-09T03:00:41.695Z,12.77
2023-02-09T03:03:11.254Z,16.47
2023-02-09T03:05:35.193Z,18.60
2023-02-09T03:07:58.502Z,15.87
2023-02-09T03:10:32.600Z,14.90
2023-02-09T03:13:09.642Z,15.33
2023-02-09T03:15:45.428Z,20.90
2023-02-09T03:18:22.253Z,18.73
2023-02-09T03:20:53.786Z,16.17
2023-02-09T03:23:33.753Z,15.13
2023-02-09T03:25:58.017Z,16.53
2023-02-09T03:28:28.536Z,19.37
2023-02-09T03:30:53.452Z,19.70
2023-02-09T03:33:24.499Z,20.23
2023-02-09T03:35:51.360Z,16.33
2023-02-09T03:38:14.666Z,17.40
2023-02-09T03:40:38.128Z,18.10
2023-02-09T03:43:01.390Z,20.13
2023-02-09T03:45:24.770Z,17.97
2023-02-09T03:47:48.522Z,22.83
2023-02-09T03:50:13.384Z,16.97
2023-02-09T03:52:36.928Z,20.13
2023-02-09T03:55:00.336Z,20.83
2023-02-09T03:57:23.653Z,20.97
2023-02-09T03:59:46.875Z,20.60
2023-02-09T04:02:11.305Z,18.77
2023-02-09T04:04:34.736Z,16.00
2023-02-09T04:07:00.252Z,19.30
2023-02-09T04:09:23.820Z,22.77
2023-02-09T04:11:47.496Z,22.83
2023-02-09T04:14:11.182Z,20.80
2023-02-09T04:16:34.591Z,22.73
2023-02-09T04:18:58.176Z,23.30
2023-02-09T04:21:22.186Z,22.23
2023-02-09T04:23:48.248Z,22.60
2023-02-09T04:26:11.743Z,18.77
2023-02-09T04:28:34.972Z,19.77
2023-02-09T04:30:58.915Z,22.27
2023-02-09T04:33:22.354Z,20.90
2023-02-09T04:35:45.737Z,20.63
2023-02-09T04:38:09.073Z,26.47
2023-02-09T04:40:33.822Z,20.63
2023-02-09T04:42:57.310Z,21.93
2023-02-09T04:45:20.718Z,20.40
2023-02-09T04:47:44.021Z,20.20
2023-02-09T04:50:08.047Z,21.47
2023-02-09T04:52:31.327Z,22.40
2023-02-09T04:54:54.580Z,20.57
2023-02-09T04:57:33.178Z,23.30
2023-02-09T04:59:56.480Z,24.97
2023-02-09T05:02:20.553Z,24.10
2023-02-09T05:04:43.817Z,21.73
2023-02-09T05:07:07.094Z,21.00
2023-02-09T05:09:31.058Z,25.17
2023-02-09T05:11:54.357Z,22.70
2023-02-09T05:14:19.080Z,23.73
2023-02-09T05:16:42.596Z,28.43
2023-02-09T05:19:05.943Z,23.03
2023-02-09T05:21:29.270Z,23.33
2023-02-09T05:23:52.597Z,25.13
2023-02-09T05:26:15.966Z,23.13
2023-02-09T05:28:39.296Z,24.73
2023-02-09T05:31:04.192Z,22.83
2023-02-09T05:33:27.703Z,26.77
2023-02-09T05:35:52.675Z,25.17
2023-02-09T05:38:16.176Z,25.60
2023-02-09T05:40:39.490Z,27.73
2023-02-09T05:43:03.447Z,26.90
2023-02-09T05:45:27.022Z,28.80
2023-02-09T05:47:51.653Z,22.30
2023-02-09T05:50:15.081Z,26.73
2023-02-09T05:52:38.400Z,24.87
2023-02-09T05:55:01.693Z,23.43
2023-02-09T05:57:24.956Z,25.67
2023-02-09T05:59:48.371Z,20.47
2023-02-09T06:02:12.452Z,23.30
2023-02-09T06:04:37.589Z,28.83
2023-02-09T06:07:01.040Z,21.73
2023-02-09T06:09:24.667Z,29.03
2023-02-09T06:11:48.319Z,28.63
2023-02-09T06:14:12.406Z,24.57
2023-02-09T06:16:35.623Z,23.17
2023-02-09T06:18:59.032Z,25.73
2023-02-09T06:21:23.889Z,22.17
2023-02-09T06:23:47.240Z,25.83
2023-02-09T06:26:12.477Z,23.10
2023-02-09T06:28:36.239Z,26.47
2023-02-09T06:30:59.666Z,26.63
2023-02-09T06:33:23.127Z,24.07
2023-02-09T06:35:48.593Z,30.77
2023-02-09T06:38:14.372Z,25.03
2023-02-09T06:40:37.935Z,23.00
2023-02-09T06:43:01.134Z,25.13
2023-02-09T06:45:24.473Z,24.27
2023-02-09T06:47:48.299Z,22.77
2023-02-09T06:50:13.708Z,23.63
2023-02-09T06:52:37.262Z,27.37
2023-02-09T06:55:01.954Z,29.37
2023-02-09T06:57:25.307Z,27.00
2023-02-09T06:59:49.103Z,27.43
2023-02-09T07:02:12.645Z,28.53
2023-02-09T07:04:35.941Z,26.83
2023-02-09T07:06:59.185Z,25.13
2023-02-09T07:09:22.495Z,29.17
2023-02-09T07:11:47.080Z,25.53
2023-02-09T07:14:10.351Z,32.97
2023-02-09T07:16:33.740Z,25.47
2023-02-09T07:18:58.858Z,32.97
2023-02-09T07:21:23.936Z,30.73
2023-02-09T07:23:47.954Z,24.80
2023-02-09T07:26:16.066Z,31.50
2023-02-09T07:28:40.780Z,23.47
2023-02-09T07:31:07.108Z,24.30
2023-02-09T07:33:30.671Z,33.47
2023-02-09T07:35:53.959Z,28.40
2023-02-09T07:38:17.264Z,28.53
2023-02-09T07:40:45.761Z,26.60
2023-02-09T07:43:09.494Z,29.57
2023-02-09T07:45:35.326Z,23.60
2023-02-09T07:47:58.606Z,27.50
2023-02-09T07:50:21.891Z,26.00
2023-02-09T07:52:45.129Z,27.40
2023-02-09T07:55:09.239Z,27.50
2023-02-09T07:57:32.980Z,24.17
2023-02-09T07:59:56.168Z,27.17
2023-02-09T08:02:29.759Z,28.23
2023-02-09T08:04:54.111Z,24.10
2023-02-09T08:07:17.485Z,28.00
2023-02-09T08:09:40.833Z,25.57
2023-02-09T08:12:07.731Z,23.80
2023-02-09T08:14:39.699Z,23.80
2023-02-09T08:17:24.204Z,27.83
2023-02-09T08:19:53.443Z,27.87
2023-02-09T08:22:16.820Z,27.23
2023-02-09T08:24:40.182Z,27.47
2023-02-09T08:27:03.829Z,36.30
2023-02-09T08:29:27.250Z,25.77
2023-02-09T08:31:50.590Z,28.50
2023-02-09T08:34:14.665Z,27.30
2023-02-09T08:36:41.418Z,27.47
2023-02-09T08:39:07.188Z,25.00
2023-02-09T08:41:30.520Z,28.17
2023-02-09T08:43:53.738Z,32.90
2023-02-09T08:46:17.656Z,30.57
2023-02-09T08:48:45.599Z,29.37
2023-02-09T08:51:12.156Z,27.20
2023-02-09T08:53:37.030Z,29.70
2023-02-09T08:56:00.479Z,27.60
2023-02-09T08:58:24.065Z,28.20
2023-02-09T09:00:47.682Z,31.53
2023-02-09T09:03:11.350Z,34.37
2023-02-09T09:05:36.294Z,29.07
2023-02-09T09:07:59.664Z,28.60
2023-02-09T09:10:24.376Z,32.37
2023-02-09T09:12:47.633Z,33.83
2023-02-09T09:15:11.520Z,32.17
2023-02-09T09:17:34.817Z,31.80
2023-02-09T09:19:59.354Z,32.30
2023-02-09T09:22:22.711Z,29.80
2023-02-09T09:24:46.037Z,41.27
2023-02-09T09:27:12.452Z,31.97
2023-02-09T09:29:36.025Z,27.13
2023-02-09T09:31:59.379Z,26.87
2023-02-09T09:34:22.770Z,32.27
2023-02-09T09:36:46.050Z,34.60
2023-02-09T09:39:09.361Z,27.80
2023-02-09T09:41:37.945Z,27.17
2023-02-09T09:44:04.409Z,29.93
2023-02-09T09:46:36.462Z,26.90
2023-02-09T09:49:00.873Z,27.47
2023-02-09T09:51:38.055Z,30.17
2023-02-09T09:54:04.442Z,29.67
2023-02-09T09:56:33.645Z,31.17
2023-02-09T09:58:57.998Z,35.10
2023-02-09T10:01:23.385Z,33.60
2023-02-09T10:03:47.121Z,27.73
2023-02-09T10:06:16.744Z,23.70
2023-02-09T10:08:45.827Z,29.27
2023-02-09T10:11:13.216Z,26.07
2023-02-09T10:13:41.359Z,27.47
2023-02-09T10:16:10.980Z,26.10
2023-02-09T10:18:38.170Z,30.57
2023-02-09T10:21:06.554Z,23.37
2023-02-09T10:23:39.644Z,24.60
2023-02-09T10:26:06.246Z,26.93
2023-02-09T10:28:34.145Z,26.87
2023-02-09T10:31:01.101Z,22.87
2023-02-09T10:33:24.618Z,23.60
2023-02-09T10:35:54.931Z,20.93
2023-02-09T10:38:21.556Z,26.83
2023-02-09T10:40:47.523Z,26.07
2023-02-09T10:43:23.868Z,23.63
2023-02-09T10:45:54.139Z,20.70
2023-02-09T10:48:21.301Z,22.50
2023-02-09T10:50:53.801Z,24.43
2023-02-09T10:53:23.813Z,23.55
2023-02-09T10:55:47.751Z,19.77
2023-02-09T10:58:24.895Z,21.33
2023-02-09T11:00:55.009Z,20.73
2023-02-09T11:03:21.674Z,20.97
2023-02-09T11:05:47.735Z,24.25
2023-02-09T11:08:22.389Z,23.73
2023-02-09T11:10:59.583Z,21.70
2023-02-09T11:13:26.637Z,20.77
2023-02-09T11:16:14.885Z,20.53
2023-02-09T11:18:38.985Z,25.38
2023-02-09T11:21:09.046Z,23.23
2023-02-09T11:23:44.562Z,22.47
2023-02-09T11:26:17.021Z,28.20
2023-02-09T11:28:54.328Z,24.38
2023-02-09T11:31:46.432Z,21.20
2023-02-09T11:34:29.516Z,22.60
2023-02-09T11:37:04.946Z,21.90
2023-02-09T11:39:42.176Z,23.05
2023-02-09T11:42:29.415Z,32.88
2023-02-09T11:44:57.997Z,24.00
2023-02-09T11:47:27.226Z,23.20
2023-02-09T11:49:54.033Z,28.13
2023-02-09T11:52:20.328Z,21.40
2023-02-09T11:54:49.552Z,26.08
2023-02-09T11:57:22.871Z,25.10
2023-02-09T11:59:57.076Z,24.35
2023-02-09T12:02:37.562Z,23.10
2023-02-09T12:05:03.147Z,22.67
2023-02-09T12:07:36.586Z,28.05
2023-02-09T12:10:13.901Z,23.92
2023-02-09T12:12:45.824Z,24.13
2023-02-09T12:15:17.214Z,25.33
2023-02-09T12:17:47.315Z,25.35
2023-02-09T12:20:28.870Z,23.73
2023-02-09T12:23:07.637Z,22.48
2023-02-09T12:25:51.166Z,23.55
2023-02-09T12:28:20.014Z,21.90
2023-02-09T12:31:25.279Z,22.98
2023-02-09T12:34:14.473Z,21.08
2023-02-09T12:36:37.862Z,17.98
2023-02-09T12:39:06.230Z,25.40
2023-02-09T12:41:52.703Z,15.95
2023-02-09T12:44:39.533Z,22.90
2023-02-09T12:47:02.962Z,16.70
2023-02-09T12:49:35.611Z,19.20
2023-02-09T12:52:18.008Z,20.25
2023-02-09T12:54:51.383Z,18.08
2023-02-09T12:57:55.750Z,19.33
2023-02-09T13:00:43.964Z,17.70
2023-02-09T13:03:14.290Z,18.08
2023-02-09T13:05:44.556Z,20.48
2023-02-09T13:08:27.149Z,21.10
2023-02-09T13:10:57.724Z,20.58
2023-02-09T13:13:35.378Z,19.92
2023-02-09T13:16:49.787Z,25.60
2023-02-09T13:19:47.972Z,21.92
2023-02-09T13:22:28.727Z,18.83
2023-02-09T13:24:59.930Z,22.58
2023-02-09T13:27:25.581Z,19.15
2023-02-09T13:29:57.095Z,20.45
2023-02-09T13:32:36.285Z,19.70
2023-02-09T13:35:11.681Z,23.63
2023-02-09T13:37:44.030Z,17.50
2023-02-09T13:40:18.802Z,22.00
2023-02-09T13:42:55.344Z,20.13
2023-02-09T13:45:21.173Z,23.42
2023-02-09T13:47:44.996Z,18.52
2023-02-09T13:50:16.418Z,21.13
2023-02-09T13:52:40.381Z,19.08
2023-02-09T13:55:12.910Z,20.30
2023-02-09T13:57:40.680Z,18.17
2023-02-09T14:00:13.823Z,18.08
2023-02-09T14:02:48.473Z,19.42
2023-02-09T14:05:11.956Z,20.55
2023-02-09T14:07:38.136Z,20.55
2023-02-09T14:10:07.076Z,16.00
2023-02-09T14:12:55.757Z,15.73
2023-02-09T14:15:41.841Z,16.90
2023-02-09T14:18:30.168Z,15.10
2023-02-09T14:21:14.241Z,14.02
2023-02-09T14:23:37.976Z,14.85
2023-02-09T14:26:06.615Z,15.55
2023-02-09T14:28:29.966Z,16.23
2023-02-09T14:30:53.358Z,16.65
2023-02-09T14:33:25.244Z,17.15
2023-02-09T14:35:56.940Z,17.15
2023-02-09T14:38:37.788Z,20.48
2023-02-09T14:41:01.070Z,15.38
2023-02-09T14:43:27.193Z,14.77
2023-02-09T14:46:01.010Z,15.50
2023-02-09T14:48:27.980Z,15.98
2023-02-09T14:50:54.782Z,14.93
2023-02-09T14:53:19.258Z,12.90
2023-02-09T14:55:44.280Z,15.48
2023-02-09T14:58:17.389Z,15.48
2023-02-09T15:00:40.707Z,18.00
2023-02-09T15:03:04.344Z,14.90
2023-02-09T15:05:30.320Z,16.65
2023-02-09T15:07:58.254Z,17.90
2023-02-09T15:10:27.608Z,15.93
2023-02-09T15:12:51.022Z,16.70
2023-02-09T15:15:17.992Z,16.17
2023-02-09T15:17:41.295Z,22.20
2023-02-09T15:20:04.771Z,18.58
2023-02-09T15:22:29.468Z,15.93
2023-02-09T15:24:54.705Z,15.32
2023-02-09T15:27:27.051Z,16.45
2023-02-09T15:29:50.748Z,19.05
2023-02-09T15:32:17.223Z,18.23
2023-02-09T15:34:40.632Z,17.17
2023-02-09T15:37:03.925Z,19.40
2023-02-09T15:39:31.382Z,18.20
2023-02-09T15:42:12.079Z,19.58
2023-02-09T15:44:52.952Z,16.90
2023-02-09T15:47:33.720Z,23.15
2023-02-09T15:49:57.027Z,17.45
2023-02-09T15:52:20.626Z,21.73
2023-02-09T15:54:45.995Z,19.05
2023-02-09T15:57:12.519Z,21.13
2023-02-09T15:59:35.978Z,21.60
2023-02-09T16:02:00.367Z,23.70
2023-02-09T16:04:23.886Z,18.02
2023-02-09T16:06:52.261Z,17.15
2023-02-09T16:09:20.746Z,20.10
2023-02-09T16:11:45.648Z,19.77
2023-02-09T16:14:17.251Z,19.52
2023-02-09T16:16:40.688Z,21.88
2023-02-09T16:19:03.988Z,19.42
2023-02-09T16:21:30.699Z,20.63
2023-02-09T16:23:55.859Z,18.98
2023-02-09T16:26:21.042Z,23.77
2023-02-09T16:28:47.034Z,24.70
2023-02-09T16:31:11.409Z,20.83
2023-02-09T16:33:35.463Z,24.02
2023-02-09T16:36:02.708Z,24.23
2023-02-09T16:38:27.764Z,19.38
2023-02-09T16:40:51.692Z,19.88
2023-02-09T16:43:15.763Z,19.27
2023-02-09T16:45:44.695Z,22.15
2023-02-09T16:48:20.813Z,20.70
2023-02-09T16:50:48.172Z,21.00
2023-02-09T16:53:19.542Z,20.42
2023-02-09T16:55:43.211Z,24.05
2023-02-09T16:58:07.001Z,27.33
2023-02-09T17:00:36.167Z,25.40
2023-02-09T17:03:07.488Z,21.63
2023-02-09T17:05:34.879Z,22.98
2023-02-09T17:08:03.398Z,21.27
2023-02-09T17:10:29.750Z,24.10
2023-02-09T17:12:53.833Z,20.85
2023-02-09T17:15:29.445Z,21.48
2023-02-09T17:17:57.409Z,22.85
2023-02-09T17:20:25.081Z,22.98
2023-02-09T17:22:51.594Z,24.23
2023-02-09T17:25:19.451Z,23.45
2023-02-09T17:27:42.980Z,24.70
2023-02-09T17:30:08.543Z,25.48
2023-02-09T17:32:31.754Z,22.27
2023-02-09T17:34:55.535Z,27.08
2023-02-09T17:37:20.379Z,25.73
2023-02-09T17:39:43.840Z,24.27
2023-02-09T17:42:07.366Z,25.27
2023-02-09T17:44:45.699Z,25.88
2023-02-09T17:47:14.466Z,27.58
2023-02-09T17:49:37.691Z,24.05
2023-02-09T17:52:00.938Z,29.83
2023-02-09T17:54:25.724Z,35.78
2023-02-09T17:56:49.310Z,29.88
2023-02-09T17:59:14.843Z,24.23
2023-02-09T18:01:42.111Z,29.98
2023-02-09T18:04:06.072Z,26.63
2023-02-09T18:06:35.078Z,27.27
2023-02-09T18:08:58.443Z,31.02
2023-02-09T18:11:42.764Z,28.45
2023-02-09T18:14:06.149Z,31.85
2023-02-09T18:16:29.575Z,31.73
2023-02-09T18:18:52.858Z,27.98
2023-02-09T18:21:16.236Z,28.83
2023-02-09T18:23:41.095Z,25.83
2023-02-09T18:26:06.293Z,28.08
2023-02-09T18:28:31.057Z,29.95
2023-02-09T18:30:54.406Z,28.10
2023-02-09T18:33:17.840Z,28.42
2023-02-09T18:35:44.607Z,30.58
2023-02-09T18:38:11.518Z,30.50
2023-02-09T18:40:35.184Z,32.88
2023-02-09T18:42:58.548Z,31.85
2023-02-09T18:45:24.132Z,30.73
2023-02-09T18:47:48.467Z,32.63
2023-02-09T18:50:13.300Z,29.50
2023-02-09T18:52:36.519Z,26.85
2023-02-09T18:54:59.866Z,30.60
2023-02-09T18:57:23.161Z,31.52
2023-02-09T18:59:47.924Z,31.95
2023-02-09T19:02:14.496Z,34.22
2023-02-09T19:04:37.725Z,30.88
2023-02-09T19:07:02.247Z,34.78
2023-02-09T19:09:25.682Z,34.75
2023-02-09T19:11:48.957Z,35.22
2023-02-09T19:14:29.660Z,33.88
2023-02-09T19:16:53.063Z,31.58
2023-02-09T19:19:19.095Z,34.15
2023-02-09T19:21:42.391Z,33.25
2023-02-09T19:24:06.153Z,37.47
2023-02-09T19:26:29.716Z,37.75
2023-02-09T19:28:52.987Z,34.47
2023-02-09T19:31:19.620Z,31.27
2023-02-09T19:33:43.000Z,37.20
2023-02-09T19:36:09.139Z,39.45
2023-02-09T19:38:32.814Z,38.05
2023-02-09T19:41:09.868Z,35.50
2023-02-09T19:43:33.633Z,36.15
2023-02-09T19:45:57.488Z,36.17
2023-02-09T19:48:20.763Z,40.33
2023-02-09T19:50:44.226Z,40.53
2023-02-09T19:53:08.985Z,38.58
2023-02-09T19:55:32.514Z,36.10
2023-02-09T19:57:55.947Z,37.30
2023-02-09T20:00:20.037Z,35.40
2023-02-09T20:02:43.957Z,40.00
2023-02-09T20:05:08.526Z,39.97
2023-02-09T20:07:31.750Z,40.80
2023-02-09T20:09:58.155Z,36.90
2023-02-09T20:12:22.786Z,38.45
2023-02-09T20:14:46.463Z,39.40
2023-02-09T20:17:09.753Z,40.58
2023-02-09T20:19:36.102Z,45.60
2023-02-09T20:21:59.413Z,41.83
2023-02-09T20:24:24.017Z,37.35
2023-02-09T20:26:48.701Z,40.47
2023-02-09T20:29:12.267Z,40.85
2023-02-09T20:31:38.488Z,41.55
2023-02-09T20:34:05.191Z,42.42
2023-02-09T20:36:28.476Z,41.38
2023-02-09T20:38:52.024Z,43.58
2023-02-09T20:41:18.461Z,39.47
2023-02-09T20:44:01.208Z,41.70
2023-02-09T20:46:56.083Z,40.35
2023-02-09T20:49:20.118Z,41.15
2023-02-09T20:51:44.644Z,44.63
2023-02-09T20:54:08.314Z,43.08
2023-02-09T20:56:32.339Z,40.70
2023-02-09T20:58:57.086Z,45.55
2023-02-09T21:01:23.161Z,39.78
2023-02-09T21:03:46.532Z,43.80
2023-02-09T21:06:10.145Z,48.15
2023-02-09T21:08:33.574Z,43.75
2023-02-09T21:10:58.055Z,45.88
2023-02-09T21:13:21.492Z,44.95
2023-02-09T21:15:46.221Z,51.53
2023-02-09T21:18:09.973Z,48.88
2023-02-09T21:20:33.856Z,49.47
2023-02-09T21:22:57.405Z,50.58
2023-02-09T21:25:20.792Z,47.97
2023-02-09T21:27:43.992Z,45.95
2023-02-09T21:30:08.098Z,49.78
2023-02-09T21:32:34.901Z,48.33
2023-02-09T21:34:58.179Z,47.50
2023-02-09T21:37:22.799Z,45.45
2023-02-09T21:39:46.149Z,49.50
2023-02-09T21:42:28.737Z,48.47
2023-02-09T21:44:54.058Z,56.03
2023-02-09T21:47:17.462Z,47.92
2023-02-09T21:49:42.283Z,44.97
2023-02-09T21:52:05.901Z,45.38
2023-02-09T21:54:33.204Z,51.58
2023-02-09T21:56:56.510Z,49.03
2023-02-09T21:59:20.081Z,51.80
2023-02-09T22:01:43.590Z,54.08
2023-02-09T22:04:06.998Z,49.78
2023-02-09T22:06:32.432Z,53.15
2023-02-09T22:08:55.766Z,47.55
2023-02-09T22:11:19.081Z,44.97
2023-02-09T22:13:42.416Z,47.85
2023-02-09T22:16:08.166Z,49.55
2023-02-09T22:18:31.501Z,52.83
2023-02-09T22:20:55.178Z,50.80
2023-02-09T22:23:20.739Z,49.22
2023-02-09T22:25:44.048Z,49.65
2023-02-09T22:28:07.758Z,53.15
2023-02-09T22:30:31.152Z,56.42
2023-02-09T22:32:54.983Z,52.40
2023-02-09T22:35:18.537Z,52.30
2023-02-09T22:37:41.887Z,52.63
2023-02-09T22:40:07.278Z,51.45
2023-02-09T22:42:30.510Z,52.45
2023-02-09T22:44:53.783Z,54.92
2023-02-09T22:47:17.088Z,51.97
2023-02-09T22:49:40.408Z,52.40
2023-02-09T22:52:03.829Z,52.33
2023-02-09T22:54:27.082Z,48.55
2023-02-09T22:56:52.008Z,52.42
2023-02-09T22:59:16.112Z,54.47
2023-02-09T23:01:39.651Z,52.10
2023-02-09T23:04:03.557Z,54.05
2023-02-09T23:06:29.983Z,57.13
2023-02-09T23:08:55.023Z,58.28
2023-02-09T23:11:18.951Z,57.47
2023-02-09T23:13:44.494Z,57.47
2023-02-09T23:16:10.421Z,57.97
2023-02-09T23:18:33.898Z,56.00
2023-02-09T23:20:57.159Z,54.97
2023-02-09T23:23:20.380Z,58.92
2023-02-09T23:25:43.742Z,62.15
2023-02-09T23:28:07.002Z,61.33
2023-02-09T23:30:31.667Z,66.65
2023-02-09T23:32:55.020Z,57.70
2023-02-09T23:35:18.565Z,65.50
2023-02-09T23:37:41.804Z,63.88
2023-02-09T23:40:05.448Z,61.40
2023-02-09T23:42:28.695Z,65.80
2023-02-09T23:44:52.043Z,64.38
2023-02-09T23:47:16.786Z,64.18
2023-02-09T23:49:40.089Z,63.92
2023-02-09T23:52:03.351Z,61.97
2023-02-09T23:54:26.626Z,68.55
2023-02-09T23:56:51.951Z,64.57
2023-02-09T23:59:16.948Z,65.18
